createdAt,value
2023-05-05T00:01:25.665Z,2.50
2023-05-05T00:03:52.580Z,2.42
2023-05-05T00:06:19.628Z,2.40
2023-05-05T00:08:46.923Z,2.65
2023-05-05T00:11:13.769Z,2.20
2023-05-05T00:13:40.613Z,2.25
2023-05-05T00:16:07.753Z,2.30
2023-05-05T00:18:34.728Z,2.40
2023-05-05T00:21:01.582Z,2.25
2023-05-05T00:23:28.511Z,2.40
2023-05-05T00:25:55.396Z,2.20
2023-05-05T00:28:22.354Z,2.30
2023-05-05T00:30:49.272Z,2.30
2023-05-05T00:33:16.233Z,2.20
2023-05-05T00:35:43.229Z,2.15
2023-05-05T00:38:10.078Z,2.25
2023-05-05T00:40:37.318Z,2.40
2023-05-05T00:43:04.367Z,2.40
2023-05-05T00:45:31.393Z,1.97
2023-05-05T00:48:00.182Z,2.30
2023-05-05T00:50:29.153Z,2.33
2023-05-05T00:53:06.784Z,2.10
2023-05-05T00:55:34.915Z,2.40
2023-05-05T00:58:02.867Z,2.35
2023-05-05T01:00:30.833Z,2.60
2023-05-05T01:02:58.012Z,2.30
2023-05-05T01:05:26.128Z,2.53
2023-05-05T01:08:22.240Z,2.70
2023-05-05T01:11:07.425Z,2.40
2023-05-05T01:13:49.442Z,2.70
2023-05-05T01:16:24.530Z,2.70
2023-05-05T01:19:00.734Z,2.63
2023-05-05T01:21:33.802Z,2.70
2023-05-05T01:24:06.740Z,3.20
2023-05-05T01:27:06.239Z,3.35
2023-05-05T01:29:56.449Z,3.10
2023-05-05T01:32:27.419Z,3.38
2023-05-05T01:35:01.477Z,3.10
2023-05-05T01:37:38.188Z,3.60
2023-05-05T01:40:08.152Z,3.67
2023-05-05T01:42:38.261Z,4.03
2023-05-05T01:45:07.586Z,4.20
2023-05-05T01:47:36.201Z,4.00
2023-05-05T01:50:04.188Z,4.10
2023-05-05T01:52:32.262Z,4.18
2023-05-05T01:55:00.518Z,4.57
2023-05-05T01:57:31.096Z,4.65
2023-05-05T02:00:00.886Z,5.17
2023-05-05T02:02:29.074Z,5.15
2023-05-05T02:04:58.023Z,5.05
2023-05-05T02:07:25.622Z,5.50
2023-05-05T02:09:53.246Z,5.30
2023-05-05T02:12:20.777Z,5.60
2023-05-05T02:14:48.191Z,5.30
2023-05-05T02:17:16.584Z,6.10
2023-05-05T02:19:45.862Z,5.50
2023-05-05T02:22:12.788Z,5.70
2023-05-05T02:24:39.697Z,5.40
2023-05-05T02:27:08.450Z,6.05
2023-05-05T02:29:41.793Z,5.68
2023-05-05T02:32:18.035Z,5.82
2023-05-05T02:34:47.426Z,5.78
2023-05-05T02:37:21.365Z,5.30
2023-05-05T02:39:54.431Z,5.85
2023-05-05T02:42:23.628Z,5.40
2023-05-05T02:44:52.213Z,5.30
2023-05-05T02:47:20.776Z,5.30
2023-05-05T02:49:47.610Z,5.45
2023-05-05T02:52:14.538Z,5.80
2023-05-05T02:54:41.418Z,6.00
2023-05-05T02:57:10.145Z,5.80
2023-05-05T03:00:26.631Z,5.30
2023-05-05T03:03:05.774Z,5.57
2023-05-05T03:05:57.771Z,5.60
2023-05-05T03:08:33.124Z,5.43
2023-05-05T03:11:04.566Z,5.60
2023-05-05T03:13:34.594Z,5.70
2023-05-05T03:16:02.144Z,5.50
2023-05-05T03:18:30.755Z,5.80
2023-05-05T03:20:59.195Z,6.00
2023-05-05T03:23:26.305Z,5.70
2023-05-05T03:25:53.160Z,5.80
2023-05-05T03:28:20.061Z,5.45
2023-05-05T03:30:47.033Z,5.90
2023-05-05T03:33:13.897Z,5.60
2023-05-05T03:35:40.805Z,5.78
2023-05-05T03:38:07.680Z,6.00
2023-05-05T03:40:43.574Z,5.60
2023-05-05T03:43:11.493Z,5.75
2023-05-05T03:45:38.460Z,5.90
2023-05-05T03:48:06.135Z,5.80
2023-05-05T03:50:33.063Z,5.63
2023-05-05T03:52:59.927Z,5.50
2023-05-05T03:55:26.844Z,5.68
2023-05-05T03:57:53.711Z,5.60
2023-05-05T04:00:20.729Z,5.47
2023-05-05T04:02:47.646Z,6.10
2023-05-05T04:05:14.693Z,5.90
2023-05-05T04:07:41.538Z,5.80
2023-05-05T04:10:09.154Z,5.78
2023-05-05T04:12:36.284Z,5.43
2023-05-05T04:15:03.328Z,5.18
2023-05-05T04:17:30.184Z,5.60
2023-05-05T04:19:57.073Z,5.60
2023-05-05T04:22:23.971Z,5.40
2023-05-05T04:24:50.872Z,5.72
2023-05-05T04:27:17.755Z,5.70
2023-05-05T04:29:44.574Z,5.53
2023-05-05T04:32:11.433Z,5.60
2023-05-05T04:34:38.282Z,5.50
2023-05-05T04:37:05.172Z,6.20
2023-05-05T04:39:32.086Z,6.18
2023-05-05T04:41:58.976Z,5.57
2023-05-05T04:44:25.825Z,5.70
2023-05-05T04:46:52.748Z,6.15
2023-05-05T04:49:19.687Z,5.90
2023-05-05T04:51:46.532Z,6.30
2023-05-05T04:54:13.421Z,5.57
2023-05-05T04:56:40.286Z,6.00
2023-05-05T04:59:07.147Z,5.80
2023-05-05T05:01:34.791Z,5.38
2023-05-05T05:04:03.305Z,5.60
2023-05-05T05:06:30.235Z,5.20
2023-05-05T05:08:57.056Z,5.00
2023-05-05T05:11:23.965Z,5.30
2023-05-05T05:13:50.924Z,5.80
2023-05-05T05:16:17.904Z,5.63
2023-05-05T05:18:44.789Z,6.13
2023-05-05T05:21:12.172Z,5.35
2023-05-05T05:23:39.061Z,5.23
2023-05-05T05:26:06.388Z,5.60
2023-05-05T05:28:33.219Z,4.95
2023-05-05T05:31:00.188Z,5.40
2023-05-05T05:33:27.055Z,5.10
2023-05-05T05:35:53.886Z,4.93
2023-05-05T05:38:20.751Z,5.00
2023-05-05T05:40:47.642Z,5.00
2023-05-05T05:43:14.513Z,4.70
2023-05-05T05:45:41.646Z,4.63
2023-05-05T05:48:08.604Z,4.40
2023-05-05T05:50:35.520Z,4.30
2023-05-05T05:53:02.439Z,4.07
2023-05-05T05:55:29.399Z,4.80
2023-05-05T05:57:56.366Z,3.97
2023-05-05T06:00:23.426Z,3.97
2023-05-05T06:02:50.469Z,4.28
2023-05-05T06:05:17.459Z,4.30
2023-05-05T06:07:44.357Z,3.90
2023-05-05T06:10:22.555Z,4.18
2023-05-05T06:12:54.110Z,4.05
2023-05-05T06:15:21.036Z,4.00
2023-05-05T06:17:47.895Z,3.80
2023-05-05T06:20:14.829Z,4.50
2023-05-05T06:22:41.744Z,4.00
2023-05-05T06:25:08.938Z,3.75
2023-05-05T06:27:35.803Z,3.92
2023-05-05T06:30:02.644Z,3.80
2023-05-05T06:32:29.609Z,3.80
2023-05-05T06:34:56.566Z,3.30
2023-05-05T06:37:23.457Z,3.60
2023-05-05T06:39:50.315Z,3.78
2023-05-05T06:42:17.273Z,3.60
2023-05-05T06:44:44.188Z,3.60
2023-05-05T06:47:11.044Z,3.60
2023-05-05T06:49:44.068Z,3.50
2023-05-05T06:52:10.942Z,3.50
2023-05-05T06:54:37.798Z,3.50
2023-05-05T06:57:07.539Z,3.45
2023-05-05T06:59:34.563Z,3.85
2023-05-05T07:02:04.476Z,3.75
2023-05-05T07:04:31.396Z,3.90
2023-05-05T07:06:58.328Z,3.33
2023-05-05T07:09:25.303Z,3.60
2023-05-05T07:11:52.155Z,3.53
2023-05-05T07:14:19.051Z,3.55
2023-05-05T07:16:45.917Z,3.25
2023-05-05T07:19:12.778Z,3.90
2023-05-05T07:21:39.702Z,3.45
2023-05-05T07:24:07.080Z,3.53
2023-05-05T07:26:34.176Z,3.42
2023-05-05T07:29:02.823Z,3.40
2023-05-05T07:31:29.717Z,3.40
2023-05-05T07:33:56.680Z,3.50
2023-05-05T07:36:23.617Z,3.50
2023-05-05T07:38:50.525Z,3.45
2023-05-05T07:41:17.412Z,3.70
2023-05-05T07:43:44.775Z,4.50
2023-05-05T07:46:12.320Z,3.70
2023-05-05T07:48:39.723Z,3.40
2023-05-05T07:51:06.781Z,3.10
2023-05-05T07:53:33.661Z,3.30
2023-05-05T07:56:00.505Z,3.30
2023-05-05T07:58:27.372Z,3.00
2023-05-05T08:00:54.192Z,3.20
2023-05-05T08:03:21.182Z,3.35
2023-05-05T08:05:50.552Z,3.40
2023-05-05T08:08:18.532Z,3.90
2023-05-05T08:10:45.446Z,3.28
2023-05-05T08:13:12.455Z,3.30
2023-05-05T08:15:39.370Z,3.50
2023-05-05T08:18:09.811Z,3.30
2023-05-05T08:20:36.719Z,3.20
2023-05-05T08:23:03.635Z,3.50
2023-05-05T08:25:30.499Z,3.50
2023-05-05T08:27:57.352Z,3.40
2023-05-05T08:30:24.239Z,3.50
2023-05-05T08:32:51.241Z,3.40
2023-05-05T08:35:18.209Z,3.30
2023-05-05T08:37:45.115Z,4.93
2023-05-05T08:40:13.207Z,3.30
2023-05-05T08:42:40.911Z,3.30
2023-05-05T08:45:09.901Z,3.20
2023-05-05T08:47:38.501Z,3.40
2023-05-05T08:50:06.140Z,3.27
2023-05-05T08:52:42.424Z,3.10
2023-05-05T08:55:22.127Z,3.00
2023-05-05T08:57:57.277Z,3.03
2023-05-05T09:00:24.584Z,3.20
2023-05-05T09:02:53.003Z,3.40
2023-05-05T09:05:19.973Z,3.40
2023-05-05T09:07:47.530Z,3.20
2023-05-05T09:10:14.585Z,3.10
2023-05-05T09:12:41.970Z,3.20
2023-05-05T09:15:13.813Z,2.70
2023-05-05T09:17:41.761Z,3.08
2023-05-05T09:20:12.911Z,2.97
2023-05-05T09:22:42.191Z,2.60
2023-05-05T09:25:10.866Z,3.20
2023-05-05T09:27:46.272Z,3.20
2023-05-05T09:30:17.193Z,2.80
2023-05-05T09:32:48.878Z,3.50
2023-05-05T09:35:16.980Z,2.95
2023-05-05T09:37:44.659Z,3.10
2023-05-05T09:40:14.003Z,3.08
2023-05-05T09:42:41.507Z,3.00
2023-05-05T09:45:17.767Z,3.55
2023-05-05T09:47:49.120Z,3.00
2023-05-05T09:50:17.466Z,3.30
2023-05-05T09:53:02.409Z,3.50
2023-05-05T09:55:29.985Z,2.90
2023-05-05T09:57:57.262Z,3.00
2023-05-05T10:00:38.465Z,3.20
2023-05-05T10:03:05.365Z,2.88
2023-05-05T10:05:32.390Z,3.17
2023-05-05T10:08:12.684Z,2.93
2023-05-05T10:10:57.167Z,3.22
2023-05-05T10:13:25.184Z,2.73
2023-05-05T10:15:54.912Z,2.95
2023-05-05T10:18:26.252Z,3.45
2023-05-05T10:21:04.074Z,3.28
2023-05-05T10:23:33.790Z,3.42
2023-05-05T10:26:10.271Z,3.00
2023-05-05T10:28:54.494Z,2.80
2023-05-05T10:31:29.382Z,2.90
2023-05-05T10:34:04.245Z,3.10
2023-05-05T10:36:32.000Z,2.80
2023-05-05T10:39:00.697Z,3.20
2023-05-05T10:41:29.508Z,2.72
2023-05-05T10:43:56.570Z,2.90
2023-05-05T10:46:25.265Z,2.70
2023-05-05T10:49:13.508Z,2.40
2023-05-05T10:51:44.513Z,2.60
2023-05-05T10:54:43.332Z,2.50
2023-05-05T10:57:12.083Z,2.60
2023-05-05T10:59:39.657Z,2.90
2023-05-05T11:02:27.929Z,3.15
2023-05-05T11:05:11.135Z,2.70
2023-05-05T11:07:38.401Z,3.40
2023-05-05T11:10:10.043Z,2.90
2023-05-05T11:13:03.464Z,3.00
2023-05-05T11:15:30.557Z,2.63
2023-05-05T11:17:59.139Z,3.17
2023-05-05T11:20:38.414Z,3.28
2023-05-05T11:23:05.522Z,3.10
2023-05-05T11:25:35.874Z,2.78
2023-05-05T11:28:12.998Z,2.60
2023-05-05T11:31:18.425Z,2.60
2023-05-05T11:33:45.553Z,2.80
2023-05-05T11:36:14.597Z,3.03
2023-05-05T11:38:56.314Z,2.95
2023-05-05T11:41:32.087Z,2.65
2023-05-05T11:44:19.377Z,3.00
2023-05-05T11:46:52.129Z,2.90
2023-05-05T11:49:27.990Z,2.70
2023-05-05T11:51:58.355Z,2.90
2023-05-05T11:54:26.089Z,2.60
2023-05-05T11:56:57.800Z,2.70
2023-05-05T11:59:25.329Z,2.60
2023-05-05T12:01:52.833Z,2.97
2023-05-05T12:04:19.893Z,2.70
2023-05-05T12:06:46.915Z,2.90
2023-05-05T12:09:20.420Z,2.92
2023-05-05T12:11:51.102Z,2.97
2023-05-05T12:14:18.310Z,2.70
2023-05-05T12:16:59.267Z,3.10
2023-05-05T12:19:26.120Z,3.00
2023-05-05T12:21:52.960Z,3.20
2023-05-05T12:24:19.876Z,2.85
2023-05-05T12:26:46.823Z,2.70
2023-05-05T12:29:13.668Z,2.60
2023-05-05T12:31:42.513Z,3.00
2023-05-05T12:34:11.182Z,3.20
2023-05-05T12:36:39.108Z,3.10
2023-05-05T12:39:05.985Z,3.20
2023-05-05T12:41:33.386Z,3.08
2023-05-05T12:44:01.725Z,3.00
2023-05-05T12:46:29.185Z,2.90
2023-05-05T12:49:06.860Z,3.10
2023-05-05T12:51:37.932Z,2.80
2023-05-05T12:54:08.755Z,2.92
2023-05-05T12:56:43.260Z,2.77
2023-05-05T12:59:29.796Z,3.00
2023-05-05T13:01:59.849Z,2.70
2023-05-05T13:04:28.079Z,2.60
2023-05-05T13:07:15.220Z,2.50
2023-05-05T13:09:42.340Z,2.90
2023-05-05T13:12:09.698Z,2.72
2023-05-05T13:14:36.604Z,2.92
2023-05-05T13:17:03.550Z,2.80
2023-05-05T13:19:30.611Z,2.80
2023-05-05T13:21:58.926Z,2.93
2023-05-05T13:24:37.945Z,2.30
2023-05-05T13:27:12.958Z,2.90
2023-05-05T13:29:39.890Z,2.70
2023-05-05T13:32:06.727Z,2.83
2023-05-05T13:34:33.814Z,2.72
2023-05-05T13:37:00.704Z,3.10
2023-05-05T13:39:27.611Z,2.80
2023-05-05T13:41:54.457Z,2.80
2023-05-05T13:44:21.362Z,3.20
2023-05-05T13:46:48.341Z,3.00
2023-05-05T13:49:15.235Z,3.10
2023-05-05T13:51:42.104Z,3.17
2023-05-05T13:54:09.734Z,2.83
2023-05-05T13:56:36.759Z,2.90
2023-05-05T13:59:03.978Z,2.60
2023-05-05T14:01:30.986Z,3.03
2023-05-05T14:03:58.268Z,2.60
2023-05-05T14:06:25.653Z,2.60
2023-05-05T14:08:52.510Z,3.00
2023-05-05T14:11:19.516Z,3.00
2023-05-05T14:13:46.801Z,2.80
2023-05-05T14:16:13.808Z,2.90
2023-05-05T14:18:40.801Z,2.90
2023-05-05T14:21:07.717Z,2.80
2023-05-05T14:23:34.593Z,2.58
2023-05-05T14:26:01.630Z,2.70
2023-05-05T14:28:28.531Z,2.83
2023-05-05T14:30:55.484Z,2.50
2023-05-05T14:33:22.342Z,2.78
2023-05-05T14:35:49.365Z,2.70
2023-05-05T14:38:16.292Z,2.60
2023-05-05T14:40:43.234Z,2.80
2023-05-05T14:43:10.137Z,2.90
2023-05-05T14:45:37.079Z,2.75
2023-05-05T14:48:04.286Z,2.67
2023-05-05T14:50:31.135Z,2.63
2023-05-05T14:52:57.983Z,2.60
2023-05-05T14:55:24.910Z,2.65
2023-05-05T14:57:51.904Z,2.58
2023-05-05T15:00:19.018Z,2.78
2023-05-05T15:02:46.005Z,2.40
2023-05-05T15:05:12.912Z,2.60
2023-05-05T15:07:39.815Z,2.70
2023-05-05T15:10:07.671Z,2.83
2023-05-05T15:12:34.663Z,2.90
2023-05-05T15:15:01.523Z,2.80
2023-05-05T15:17:28.427Z,2.67
2023-05-05T15:19:55.298Z,2.35
2023-05-05T15:22:22.156Z,5.10
2023-05-05T15:24:49.123Z,2.80
2023-05-05T15:27:16.004Z,2.28
2023-05-05T15:29:42.870Z,2.67
2023-05-05T15:32:09.724Z,2.80
2023-05-05T15:34:36.581Z,2.60
2023-05-05T15:37:03.499Z,2.70
2023-05-05T15:39:30.400Z,2.50
2023-05-05T15:41:57.581Z,3.10
2023-05-05T15:44:24.484Z,3.10
2023-05-05T15:46:51.358Z,2.90
2023-05-05T15:49:18.594Z,4.65
2023-05-05T15:51:45.483Z,2.87
2023-05-05T15:54:12.355Z,2.65
2023-05-05T15:56:39.215Z,3.00
2023-05-05T15:59:06.085Z,2.67
2023-05-05T16:01:33.197Z,3.03
2023-05-05T16:04:00.026Z,2.40
2023-05-05T16:06:27.140Z,2.78
2023-05-05T16:08:53.991Z,2.70
2023-05-05T16:11:22.458Z,2.90
2023-05-05T16:13:49.555Z,2.80
2023-05-05T16:16:16.430Z,2.70
2023-05-05T16:18:43.309Z,2.70
2023-05-05T16:21:10.158Z,2.45
2023-05-05T16:23:37.010Z,2.90
2023-05-05T16:26:04.011Z,2.60
2023-05-05T16:28:31.722Z,2.60
2023-05-05T16:30:59.208Z,2.85
2023-05-05T16:33:27.359Z,2.42
2023-05-05T16:35:54.635Z,2.20
2023-05-05T16:38:22.031Z,2.10
2023-05-05T16:40:49.596Z,2.90
2023-05-05T16:43:17.054Z,2.30
2023-05-05T16:45:44.272Z,2.80
2023-05-05T16:48:11.334Z,2.50
2023-05-05T16:50:38.506Z,2.30
2023-05-05T16:53:05.650Z,2.50
2023-05-05T16:55:32.732Z,2.50
2023-05-05T16:57:59.861Z,2.70
2023-05-05T17:00:26.881Z,2.50
2023-05-05T17:02:53.750Z,2.60
2023-05-05T17:05:20.675Z,2.40
2023-05-05T17:07:47.771Z,2.30
2023-05-05T17:10:14.907Z,2.67
2023-05-05T17:12:41.870Z,4.20
2023-05-05T17:15:09.693Z,2.50
2023-05-05T17:17:36.952Z,2.97
2023-05-05T17:20:04.151Z,2.50
2023-05-05T17:22:31.070Z,3.30
2023-05-05T17:24:57.927Z,2.97
2023-05-05T17:27:24.814Z,2.78
2023-05-05T17:29:51.740Z,2.63
2023-05-05T17:32:18.574Z,2.60
2023-05-05T17:34:45.437Z,2.53
2023-05-05T17:37:12.464Z,2.67
2023-05-05T17:39:39.325Z,2.60
2023-05-05T17:42:06.226Z,2.60
2023-05-05T17:44:33.085Z,2.33
2023-05-05T17:47:00.050Z,2.60
2023-05-05T17:49:26.973Z,2.50
2023-05-05T17:51:53.840Z,2.50
2023-05-05T17:54:20.680Z,2.60
2023-05-05T17:56:47.570Z,2.58
2023-05-05T17:59:14.381Z,2.30
2023-05-05T18:01:47.136Z,2.30
2023-05-05T18:04:14.027Z,2.50
2023-05-05T18:06:40.899Z,3.03
2023-05-05T18:09:09.165Z,2.40
2023-05-05T18:11:37.283Z,2.40
2023-05-05T18:14:04.154Z,2.20
2023-05-05T18:16:31.038Z,2.30
2023-05-05T18:18:57.919Z,2.70
2023-05-05T18:21:24.996Z,2.90
2023-05-05T18:23:52.186Z,2.60
2023-05-05T18:26:19.442Z,2.50
2023-05-05T18:28:46.592Z,2.80
2023-05-05T18:31:13.876Z,2.40
2023-05-05T18:33:41.165Z,2.67
2023-05-05T18:36:08.559Z,2.60
2023-05-05T18:38:35.789Z,2.40
2023-05-05T18:41:03.065Z,3.22
2023-05-05T18:43:30.958Z,2.70
2023-05-05T18:45:58.221Z,2.70
2023-05-05T18:48:25.618Z,2.70
2023-05-05T18:50:52.790Z,2.80
2023-05-05T18:53:20.064Z,2.60
2023-05-05T18:55:47.293Z,2.88
2023-05-05T18:58:14.478Z,2.50
2023-05-05T19:00:41.791Z,2.93
2023-05-05T19:03:09.098Z,3.50
2023-05-05T19:05:36.289Z,2.70
2023-05-05T19:08:03.468Z,2.38
2023-05-05T19:10:30.684Z,3.60
2023-05-05T19:12:57.771Z,3.37
2023-05-05T19:15:25.797Z,2.70
2023-05-05T19:17:55.572Z,2.90
2023-05-05T19:20:22.673Z,2.80
2023-05-05T19:22:49.590Z,3.00
2023-05-05T19:25:16.847Z,3.30
2023-05-05T19:27:44.140Z,2.92
2023-05-05T19:30:11.416Z,2.80
2023-05-05T19:32:38.377Z,2.83
2023-05-05T19:35:06.159Z,3.20
2023-05-05T19:37:33.014Z,3.00
2023-05-05T19:39:59.844Z,3.05
2023-05-05T19:42:26.842Z,3.80
2023-05-05T19:44:53.682Z,3.30
2023-05-05T19:47:20.739Z,3.40
2023-05-05T19:49:47.608Z,3.38
2023-05-05T19:52:14.558Z,3.50
2023-05-05T19:54:41.405Z,3.50
2023-05-05T19:57:08.318Z,3.30
2023-05-05T19:59:35.177Z,3.38
2023-05-05T20:02:02.186Z,3.33
2023-05-05T20:04:29.047Z,3.60
2023-05-05T20:06:55.860Z,3.50
2023-05-05T20:09:22.745Z,3.60
2023-05-05T20:11:49.610Z,3.40
2023-05-05T20:14:16.567Z,3.40
2023-05-05T20:16:43.444Z,3.10
2023-05-05T20:19:10.296Z,3.60
2023-05-05T20:21:37.126Z,3.55
2023-05-05T20:24:04.289Z,3.50
2023-05-05T20:26:31.801Z,4.43
2023-05-05T20:28:58.648Z,9.38
2023-05-05T20:31:25.623Z,7.82
2023-05-05T20:33:52.493Z,4.40
2023-05-05T20:36:19.412Z,3.80
2023-05-05T20:38:46.321Z,3.58
2023-05-05T20:41:13.167Z,3.50
2023-05-05T20:43:40.006Z,3.45
2023-05-05T20:46:13.359Z,4.28
2023-05-05T20:48:42.750Z,4.43
2023-05-05T20:51:10.087Z,4.43
2023-05-05T20:53:36.976Z,3.40
2023-05-05T20:56:06.358Z,3.80
2023-05-05T20:58:34.112Z,3.60
2023-05-05T21:01:01.000Z,3.90
2023-05-05T21:03:28.037Z,3.40
2023-05-05T21:05:55.003Z,4.10
2023-05-05T21:08:22.069Z,3.40
2023-05-05T21:10:48.927Z,3.60
2023-05-05T21:13:16.011Z,3.30
2023-05-05T21:15:42.896Z,3.50
2023-05-05T21:18:09.794Z,3.88
2023-05-05T21:20:36.686Z,3.63
2023-05-05T21:23:03.773Z,3.50
2023-05-05T21:25:30.768Z,3.87
2023-05-05T21:27:57.636Z,3.80
2023-05-05T21:30:24.611Z,3.78
2023-05-05T21:32:52.289Z,3.70
2023-05-05T21:35:19.238Z,3.70
2023-05-05T21:37:46.151Z,3.40
2023-05-05T21:40:13.219Z,3.40
2023-05-05T21:42:41.188Z,3.80
2023-05-05T21:45:09.432Z,3.75
2023-05-05T21:47:36.692Z,3.60
2023-05-05T21:50:04.627Z,3.90
2023-05-05T21:52:31.630Z,3.80
2023-05-05T21:54:58.737Z,3.95
2023-05-05T21:57:25.885Z,3.40
2023-05-05T21:59:52.981Z,3.40
2023-05-05T22:02:20.100Z,3.95
2023-05-05T22:04:46.988Z,4.10
2023-05-05T22:07:14.295Z,3.80
2023-05-05T22:09:41.478Z,3.80
2023-05-05T22:12:08.626Z,4.20
2023-05-05T22:14:36.151Z,3.97
2023-05-05T22:17:03.447Z,3.80
2023-05-05T22:19:30.697Z,3.95
2023-05-05T22:21:58.147Z,3.47
2023-05-05T22:24:25.397Z,3.70
2023-05-05T22:26:52.527Z,3.65
2023-05-05T22:29:19.732Z,3.60
2023-05-05T22:31:47.008Z,3.75
2023-05-05T22:34:14.147Z,4.03
2023-05-05T22:36:41.044Z,3.90
2023-05-05T22:39:08.004Z,3.70
2023-05-05T22:41:35.010Z,3.90
2023-05-05T22:44:01.874Z,3.70
2023-05-05T22:46:28.734Z,3.90
2023-05-05T22:48:55.660Z,4.30
2023-05-05T22:51:22.554Z,3.60
2023-05-05T22:53:49.412Z,3.92
2023-05-05T22:56:16.718Z,4.00
2023-05-05T22:58:43.565Z,4.40
2023-05-05T23:01:10.410Z,4.15
2023-05-05T23:03:37.274Z,3.80
2023-05-05T23:06:04.292Z,4.20
2023-05-05T23:08:31.244Z,3.80
2023-05-05T23:10:58.179Z,4.30
2023-05-05T23:13:25.074Z,4.20
2023-05-05T23:15:51.968Z,3.80
2023-05-05T23:18:18.847Z,4.47
2023-05-05T23:20:45.833Z,4.30
2023-05-05T23:23:12.746Z,4.30
2023-05-05T23:25:39.604Z,4.15
2023-05-05T23:28:06.608Z,4.00
2023-05-05T23:30:33.655Z,4.00
2023-05-05T23:33:00.678Z,4.32
2023-05-05T23:35:27.908Z,4.50
2023-05-05T23:37:54.772Z,4.13
2023-05-05T23:40:21.740Z,4.28
2023-05-05T23:42:48.561Z,4.53
2023-05-05T23:45:16.921Z,4.50
2023-05-05T23:47:45.058Z,4.15
2023-05-05T23:50:12.041Z,4.68
2023-05-05T23:52:38.939Z,4.83
2023-05-05T23:55:06.855Z,4.72
2023-05-05T23:57:35.019Z,4.47
